createdAt,value
2017-03-10T16:19:13.771Z,10.30
2017-03-10T16:20:12.782Z,10.40
2017-03-10T16:21:12.210Z,10.30
2017-03-10T16:22:11.215Z,10.40
2017-03-10T16:23:09.790Z,10.30
2017-03-10T16:24:08.753Z,10.30
2017-03-10T16:25:07.864Z,10.20
2017-03-10T16:26:06.822Z,10.20
2017-03-10T16:27:05.386Z,10.20
2017-03-10T16:28:03.927Z,10.20
2017-03-10T16:29:03.162Z,10.20
2017-03-10T16:30:02.202Z,10.10
2017-03-10T16:31:01.152Z,10.10
2017-03-10T16:32:00.099Z,10.10
2017-03-10T16:32:59.090Z,10.10
2017-03-10T16:33:57.670Z,10.10
2017-03-10T16:34:56.702Z,10.10
2017-03-10T16:35:55.798Z,10.10
2017-03-10T16:36:54.762Z,10.00
2017-03-10T16:37:53.366Z,10.00
2017-03-10T16:38:52.398Z,9.90
2017-03-10T16:39:51.507Z,9.90
2017-03-10T16:40:50.725Z,9.80
2017-03-10T16:41:49.687Z,9.90
2017-03-10T16:42:48.662Z,9.90
2017-03-10T16:43:47.254Z,9.90
2017-03-10T16:44:46.225Z,9.90
2017-03-10T16:45:45.342Z,9.90
2017-03-10T16:46:44.316Z,10.00
2017-03-10T16:47:43.437Z,9.90
2017-03-10T16:48:42.430Z,9.90
2017-03-10T16:49:41.445Z,9.80
2017-03-10T16:50:40.527Z,9.80
2017-03-10T16:51:39.483Z,9.80
2017-03-10T16:52:38.474Z,9.70
2017-03-10T16:53:37.074Z,9.70
2017-03-10T16:54:35.672Z,9.70
2017-03-10T16:55:34.635Z,9.60
2017-03-10T16:56:33.593Z,9.60
2017-03-10T16:57:32.628Z,9.60
2017-03-10T16:58:31.619Z,9.60
2017-03-10T16:59:30.643Z,9.60
2017-03-10T17:00:29.627Z,9.60
2017-03-10T17:01:28.672Z,9.60
2017-03-10T17:02:27.724Z,9.60
2017-03-10T17:03:27.066Z,9.60
2017-03-10T17:04:26.023Z,9.60
2017-03-10T17:05:24.979Z,9.60
2017-03-10T17:06:23.952Z,9.60
2017-03-10T17:07:22.942Z,9.60
2017-03-10T17:08:22.081Z,9.60
2017-03-10T17:09:21.095Z,9.60
2017-03-10T17:10:20.266Z,9.50
2017-03-10T17:11:19.247Z,9.50
2017-03-10T17:12:18.271Z,9.40
2017-03-10T17:13:17.417Z,9.40
2017-03-10T17:14:16.398Z,9.40
2017-03-10T17:15:15.370Z,9.30
2017-03-10T17:16:14.395Z,9.30
2017-03-10T17:17:13.391Z,9.30
2017-03-10T17:18:11.981Z,9.30
2017-03-10T17:19:10.947Z,9.30
2017-03-10T17:20:09.580Z,9.30
2017-03-10T17:21:08.551Z,9.20
2017-03-10T17:22:07.551Z,9.20
2017-03-10T17:23:06.507Z,9.20
2017-03-10T17:24:05.593Z,9.20
2017-03-10T17:25:04.579Z,9.10
2017-03-10T17:26:03.649Z,9.10
2017-03-10T17:27:02.621Z,9.10
2017-03-10T17:28:01.148Z,9.10
2017-03-10T17:29:00.158Z,9.00
2017-03-10T17:29:59.109Z,8.90
2017-03-10T17:30:58.077Z,8.90
2017-03-10T17:31:57.130Z,8.90
2017-03-10T17:32:56.113Z,8.90
2017-03-10T17:33:55.155Z,8.90
2017-03-10T17:34:54.164Z,8.80
2017-03-10T17:35:53.606Z,8.80
2017-03-10T17:36:52.574Z,8.80
2017-03-10T17:37:51.594Z,8.80
2017-03-10T17:38:50.633Z,8.70
2017-03-10T17:39:49.634Z,8.70
2017-03-10T17:40:48.997Z,8.80
2017-03-10T17:41:48.008Z,8.80
2017-03-10T17:42:46.985Z,8.70
2017-03-10T17:43:45.973Z,8.70
2017-03-10T17:44:44.966Z,8.60
2017-03-10T17:45:44.095Z,8.60
2017-03-10T17:46:43.287Z,8.60
2017-03-10T17:47:42.281Z,8.50
2017-03-10T17:48:41.255Z,8.50
2017-03-10T17:49:39.781Z,8.60
2017-03-10T17:50:39.834Z,8.50
2017-03-10T17:51:38.424Z,8.50
2017-03-10T17:52:37.388Z,8.50
2017-03-10T17:53:36.022Z,8.50
2017-03-10T17:54:34.970Z,8.50
2017-03-10T17:55:34.012Z,8.50
2017-03-10T17:56:33.003Z,8.50
2017-03-10T17:57:32.039Z,8.50
2017-03-10T17:58:31.066Z,8.50
2017-03-10T17:59:29.789Z,8.50
2017-03-10T18:00:28.690Z,8.50
2017-03-10T18:01:27.743Z,8.50
2017-03-10T18:02:26.734Z,8.50
2017-03-10T18:03:25.719Z,8.50
2017-03-10T18:04:24.743Z,8.50
2017-03-10T18:05:23.751Z,8.60
2017-03-10T18:06:22.811Z,8.50
2017-03-10T18:07:22.026Z,8.40
2017-03-10T18:08:21.017Z,8.50
2017-03-10T18:09:20.044Z,8.40
2017-03-10T18:10:19.051Z,8.40
2017-03-10T18:11:18.066Z,8.40
2017-03-10T18:12:17.115Z,8.40
2017-03-10T18:13:16.181Z,8.30
2017-03-10T18:14:15.273Z,8.30
2017-03-10T18:15:14.243Z,8.20
2017-03-10T18:16:13.218Z,8.20
2017-03-10T18:17:12.202Z,8.20
2017-03-10T18:18:11.232Z,8.10
2017-03-10T18:19:10.226Z,8.10
2017-03-10T18:20:09.279Z,8.20
2017-03-10T18:21:08.234Z,8.20
2017-03-10T18:22:07.287Z,8.20
2017-03-10T18:23:05.875Z,8.20
2017-03-10T18:24:04.623Z,8.20
2017-03-10T18:25:03.572Z,8.20
2017-03-10T18:26:02.141Z,8.20
2017-03-10T18:27:01.135Z,8.30
2017-03-10T18:28:00.087Z,8.30
2017-03-10T18:28:59.026Z,8.30
2017-03-10T18:29:58.054Z,8.30
2017-03-10T18:30:57.078Z,8.30
2017-03-10T18:31:56.070Z,8.30
2017-03-10T18:32:55.090Z,8.30
2017-03-10T18:33:54.140Z,8.40
2017-03-10T18:34:53.104Z,8.40
2017-03-10T18:35:52.106Z,8.40
2017-03-10T18:36:51.090Z,8.30
2017-03-10T18:37:50.682Z,8.30
2017-03-10T18:38:49.739Z,8.30
2017-03-10T18:39:48.878Z,8.30
2017-03-10T18:40:47.902Z,8.30
2017-03-10T18:41:47.635Z,8.30
2017-03-10T18:42:46.672Z,8.30
2017-03-10T18:43:45.607Z,8.30
2017-03-10T18:44:44.589Z,8.30
2017-03-10T18:45:43.582Z,8.30
2017-03-10T18:46:42.650Z,8.30
2017-03-10T18:47:41.778Z,8.20
2017-03-10T18:48:40.899Z,8.20
2017-03-10T18:49:39.471Z,8.20
2017-03-10T18:50:38.455Z,8.00
2017-03-10T18:51:37.461Z,7.90
2017-03-10T18:52:36.447Z,7.80
2017-03-10T18:53:35.483Z,7.60
2017-03-10T18:54:34.513Z,7.50
2017-03-10T18:55:33.221Z,7.50
2017-03-10T18:56:32.308Z,7.40
2017-03-10T18:57:32.967Z,7.30
2017-03-10T18:58:31.715Z,7.30
2017-03-10T18:59:30.649Z,7.30
2017-03-10T19:00:29.718Z,7.30
2017-03-10T19:01:32.108Z,7.30
2017-03-10T19:02:31.396Z,7.30
2017-03-10T19:03:30.095Z,7.30
2017-03-10T19:04:28.657Z,7.20
2017-03-10T19:05:27.690Z,7.00
2017-03-10T19:06:26.679Z,7.00
2017-03-10T19:07:25.327Z,7.00
2017-03-10T19:08:24.283Z,6.90
2017-03-10T19:09:23.344Z,6.90
2017-03-10T19:10:22.346Z,6.90
2017-03-10T19:11:20.899Z,6.90
2017-03-10T19:12:20.058Z,6.80
2017-03-10T19:13:19.193Z,6.80
2017-03-10T19:14:17.775Z,6.80
2017-03-10T19:15:16.528Z,6.80
2017-03-10T19:16:15.548Z,6.70
2017-03-10T19:17:14.573Z,6.70
2017-03-10T19:18:13.711Z,6.60
2017-03-10T19:19:12.813Z,6.60
2017-03-10T19:20:11.880Z,6.60
2017-03-10T19:21:10.993Z,6.60
2017-03-10T19:22:10.497Z,6.60
2017-03-10T19:23:09.542Z,6.60
2017-03-10T19:24:08.851Z,6.60
2017-03-10T19:25:08.225Z,6.60
2017-03-10T19:26:07.479Z,6.60
2017-03-10T19:27:06.658Z,6.50
2017-03-10T19:28:06.301Z,6.50
2017-03-10T19:29:05.376Z,6.50
2017-03-10T19:30:05.136Z,6.40
2017-03-10T19:31:04.207Z,6.40
2017-03-10T19:32:03.975Z,6.40
2017-03-10T19:33:03.229Z,6.40
2017-03-10T19:34:04.110Z,6.30
2017-03-10T19:35:04.193Z,6.30
2017-03-10T19:36:03.770Z,6.30
2017-03-10T19:37:03.352Z,6.30
2017-03-10T19:38:03.042Z,6.30
2017-03-10T19:39:03.352Z,6.30
2017-03-10T19:40:03.428Z,6.20
2017-03-10T19:41:03.664Z,6.20
2017-03-10T19:42:04.249Z,6.10
2017-03-10T19:43:05.019Z,6.20
2017-03-10T19:44:05.714Z,6.20
2017-03-10T19:45:06.945Z,6.20
2017-03-10T19:46:08.056Z,6.20
2017-03-10T19:47:09.165Z,6.10
2017-03-10T19:48:10.487Z,6.10
2017-03-10T19:49:11.557Z,6.10
2017-03-10T19:50:12.680Z,6.10
2017-03-10T19:51:16.441Z,6.10
2017-03-10T19:52:17.847Z,6.10
2017-03-10T19:53:18.759Z,6.10
2017-03-10T19:54:19.906Z,6.00
2017-03-10T19:55:20.937Z,6.00
2017-03-10T19:56:23.097Z,6.00
2017-03-10T19:57:24.354Z,6.00
2017-03-10T19:58:25.241Z,6.00
2017-03-10T19:59:26.412Z,6.10
2017-03-10T20:00:27.553Z,6.10
2017-03-10T20:01:28.658Z,6.10
2017-03-10T20:02:29.591Z,6.10
2017-03-10T20:03:30.580Z,6.00
2017-03-10T20:04:31.867Z,6.00
2017-03-10T20:05:33.273Z,6.10
2017-03-10T20:06:34.717Z,6.10
2017-03-10T20:07:36.344Z,6.10
2017-03-10T20:08:37.596Z,6.10
2017-03-10T20:09:38.939Z,6.00
2017-03-10T20:10:39.914Z,6.00
2017-03-10T20:11:42.056Z,6.00
2017-03-10T20:12:42.959Z,6.00
2017-03-10T20:13:44.274Z,6.00
2017-03-10T20:14:45.619Z,5.90
2017-03-10T20:15:46.978Z,5.90
2017-03-10T20:16:48.665Z,5.80
2017-03-10T20:17:50.005Z,5.80
2017-03-10T20:18:51.341Z,5.80
2017-03-10T20:19:52.596Z,5.80
2017-03-10T20:20:53.538Z,5.80
2017-03-10T20:21:55.125Z,5.80
2017-03-10T20:22:56.792Z,5.80
2017-03-10T20:23:57.703Z,5.80
2017-03-10T20:24:59.877Z,5.80
2017-03-10T20:26:01.246Z,5.80
2017-03-10T20:27:02.971Z,5.80
2017-03-10T20:28:04.445Z,5.80
2017-03-10T20:29:05.742Z,5.80
2017-03-10T20:30:07.449Z,5.70
2017-03-10T20:31:08.934Z,5.70
2017-03-10T20:32:10.303Z,5.70
2017-03-10T20:33:11.597Z,5.80
2017-03-10T20:34:12.936Z,5.80
2017-03-10T20:35:14.348Z,5.80
2017-03-10T20:36:15.314Z,5.90
2017-03-10T20:37:16.636Z,5.70
2017-03-10T20:38:17.516Z,5.80
2017-03-10T20:39:18.871Z,5.60
2017-03-10T20:40:20.204Z,5.60
2017-03-10T20:41:22.322Z,5.50
2017-03-10T20:42:23.323Z,5.50
2017-03-10T20:43:24.611Z,5.50
2017-03-10T20:44:25.853Z,5.60
2017-03-10T20:45:27.281Z,5.60
2017-03-10T20:46:28.189Z,5.60
2017-03-10T20:47:29.572Z,5.70
2017-03-10T20:48:31.012Z,5.70
2017-03-10T20:49:32.644Z,5.80
2017-03-10T20:50:34.038Z,5.80
2017-03-10T20:51:36.065Z,5.80
2017-03-10T20:52:37.452Z,5.70
2017-03-10T20:53:39.067Z,5.60
2017-03-10T20:54:41.385Z,5.60
2017-03-10T20:55:42.728Z,5.50
2017-03-10T20:56:44.251Z,5.50
2017-03-10T20:57:45.632Z,5.40
2017-03-10T20:58:46.916Z,5.40
2017-03-10T20:59:48.310Z,5.30
2017-03-10T21:00:49.674Z,5.30
2017-03-10T21:01:51.177Z,5.20
2017-03-10T21:02:52.510Z,5.30
2017-03-10T21:03:55.640Z,5.20
2017-03-10T21:04:57.282Z,5.20
2017-03-10T21:05:59.334Z,5.30
2017-03-10T21:07:00.614Z,5.20
2017-03-10T21:08:02.137Z,5.20
2017-03-10T21:09:03.429Z,5.20
2017-03-10T21:10:04.769Z,5.20
2017-03-10T21:11:06.132Z,5.20
2017-03-10T21:12:08.060Z,5.20
2017-03-10T21:13:09.383Z,5.20
2017-03-10T21:14:10.793Z,5.20
2017-03-10T21:15:12.124Z,5.20
2017-03-10T21:16:13.373Z,5.20
2017-03-10T21:17:14.890Z,5.20
2017-03-10T21:18:15.867Z,5.20
2017-03-10T21:19:17.205Z,5.10
2017-03-10T21:20:18.609Z,5.10
2017-03-10T21:21:19.966Z,5.10
2017-03-10T21:22:22.073Z,5.10
2017-03-10T21:23:23.477Z,5.10
2017-03-10T21:24:24.866Z,5.10
2017-03-10T21:25:26.260Z,5.10
2017-03-10T21:26:27.880Z,5.10
2017-03-10T21:27:29.263Z,5.00
2017-03-10T21:28:30.485Z,5.00
2017-03-10T21:29:31.891Z,5.00
2017-03-10T21:30:32.841Z,5.00
2017-03-10T21:31:35.163Z,5.00
2017-03-10T21:32:36.377Z,4.90
2017-03-10T21:33:37.620Z,4.90
2017-03-10T21:34:38.521Z,4.90
2017-03-10T21:35:40.031Z,4.90
2017-03-10T21:36:41.487Z,5.00
2017-03-10T21:37:43.227Z,5.00
2017-03-10T21:38:44.872Z,4.90
2017-03-10T21:39:46.093Z,4.90
2017-03-10T21:40:47.246Z,4.80
2017-03-10T21:41:48.506Z,4.80
2017-03-10T21:42:49.659Z,4.80
2017-03-10T21:43:50.930Z,4.90
2017-03-10T21:44:52.244Z,4.80
2017-03-10T21:45:53.554Z,4.80
2017-03-10T21:46:54.950Z,4.80
2017-03-10T21:47:56.562Z,4.80
2017-03-10T21:48:57.550Z,4.80
2017-03-10T21:49:57.336Z,4.80
2017-03-10T21:50:57.639Z,4.70
2017-03-10T21:51:58.071Z,4.70
2017-03-10T21:52:58.497Z,4.70
2017-03-10T21:53:59.398Z,4.70
2017-03-10T21:54:59.709Z,4.70
2017-03-10T21:55:59.477Z,4.70
2017-03-10T21:56:59.186Z,4.60
2017-03-10T21:57:58.686Z,4.70
2017-03-10T21:58:58.116Z,4.70
2017-03-10T21:59:57.865Z,4.60
2017-03-10T22:00:57.304Z,4.60
2017-03-10T22:01:57.009Z,4.60
2017-03-10T22:02:56.613Z,4.50
2017-03-10T22:03:56.422Z,4.60
2017-03-10T22:04:56.121Z,4.60
2017-03-10T22:05:55.341Z,4.60
2017-03-10T22:06:54.486Z,4.60
2017-03-10T22:07:53.552Z,4.60
2017-03-10T22:08:52.805Z,4.60
2017-03-10T22:09:52.010Z,4.60
2017-03-10T22:10:51.190Z,4.50
2017-03-10T22:11:50.409Z,4.50
2017-03-10T22:12:49.619Z,4.50
2017-03-10T22:13:48.624Z,4.50
2017-03-10T22:14:47.788Z,4.50
2017-03-10T22:15:47.047Z,4.50
2017-03-10T22:16:46.111Z,4.50
2017-03-10T22:17:45.090Z,4.50
2017-03-10T22:18:44.499Z,4.50
2017-03-10T22:19:43.550Z,4.50
2017-03-10T22:20:42.523Z,4.50
2017-03-10T22:21:41.112Z,4.50
2017-03-10T22:22:40.115Z,4.50
2017-03-10T22:23:39.137Z,4.50
2017-03-10T22:24:38.170Z,4.50
2017-03-10T22:25:37.326Z,4.50
2017-03-10T22:26:36.397Z,4.50
2017-03-10T22:27:35.455Z,4.60
2017-03-10T22:28:34.437Z,4.60
2017-03-10T22:29:33.523Z,4.60
2017-03-10T22:30:32.547Z,4.70
2017-03-10T22:31:31.489Z,4.70
2017-03-10T22:32:30.175Z,4.70
2017-03-10T22:33:29.163Z,4.70
2017-03-10T22:34:28.169Z,4.70
2017-03-10T22:35:27.138Z,4.70
2017-03-10T22:36:26.176Z,4.70
2017-03-10T22:37:25.161Z,4.70
2017-03-10T22:38:23.864Z,4.70
2017-03-10T22:39:22.946Z,4.70
2017-03-10T22:40:21.979Z,4.70
2017-03-10T22:41:20.971Z,4.70
2017-03-10T22:42:20.154Z,4.70
2017-03-10T22:43:19.155Z,4.70
2017-03-10T22:44:18.142Z,4.70
2017-03-10T22:45:17.115Z,4.60
2017-03-10T22:46:16.543Z,4.70
2017-03-10T22:47:15.625Z,4.70
2017-03-10T22:48:14.647Z,4.60
2017-03-10T22:49:13.791Z,4.60
2017-03-10T22:50:12.987Z,4.60
2017-03-10T22:51:12.011Z,4.70
2017-03-10T22:52:11.074Z,4.70
2017-03-10T22:53:10.067Z,4.70
2017-03-10T22:54:09.135Z,4.70
2017-03-10T22:55:07.770Z,4.70
2017-03-10T22:56:06.754Z,4.70
2017-03-10T22:57:05.744Z,4.70
2017-03-10T22:58:04.755Z,4.70
2017-03-10T22:59:03.358Z,4.70
2017-03-10T23:00:02.391Z,4.60
2017-03-10T23:01:01.389Z,4.60
2017-03-10T23:02:00.451Z,4.50
2017-03-10T23:02:59.460Z,4.50
2017-03-10T23:03:58.531Z,4.50
2017-03-10T23:04:57.635Z,4.40
2017-03-10T23:05:57.066Z,4.50
2017-03-10T23:06:56.043Z,4.50
2017-03-10T23:07:54.654Z,4.50
2017-03-10T23:08:56.233Z,4.50
2017-03-10T23:09:55.610Z,4.60
2017-03-10T23:10:54.604Z,4.60
2017-03-10T23:11:56.231Z,4.60
2017-03-10T23:12:55.610Z,4.60
2017-03-10T23:13:54.630Z,4.60
2017-03-10T23:14:53.210Z,4.60
2017-03-10T23:15:51.839Z,4.60
2017-03-10T23:16:50.886Z,4.70
2017-03-10T23:17:49.894Z,4.70
2017-03-10T23:18:48.559Z,4.70
2017-03-10T23:19:47.579Z,4.70
2017-03-10T23:20:46.296Z,4.70
2017-03-10T23:21:45.314Z,4.70
2017-03-10T23:22:44.306Z,4.60
2017-03-10T23:23:43.324Z,4.60
2017-03-10T23:24:42.319Z,4.60
2017-03-10T23:25:41.399Z,4.60
2017-03-10T23:26:40.432Z,4.50
2017-03-10T23:27:39.460Z,4.50
2017-03-10T23:28:38.520Z,4.40
2017-03-10T23:29:38.057Z,4.40
2017-03-10T23:30:37.341Z,4.30
2017-03-10T23:31:40.315Z,4.30
2017-03-10T23:32:39.319Z,4.30
2017-03-10T23:33:38.283Z,4.40
2017-03-10T23:34:37.272Z,4.40
2017-03-10T23:35:36.278Z,4.50
2017-03-10T23:36:34.886Z,4.50
2017-03-10T23:37:34.116Z,4.50
2017-03-10T23:38:33.112Z,4.60
2017-03-10T23:39:32.505Z,4.60
2017-03-10T23:40:31.527Z,4.50
2017-03-10T23:41:30.792Z,4.40
2017-03-10T23:42:29.800Z,4.40
2017-03-10T23:43:30.069Z,4.40
2017-03-10T23:44:29.151Z,4.30
2017-03-10T23:45:28.595Z,4.30
2017-03-10T23:46:27.604Z,4.30
2017-03-10T23:47:28.235Z,4.30
2017-03-10T23:48:27.084Z,4.30
2017-03-10T23:49:26.149Z,4.30
2017-03-10T23:50:25.246Z,4.30
2017-03-10T23:51:24.604Z,4.30
2017-03-10T23:52:23.758Z,4.30
2017-03-10T23:53:22.780Z,4.30
2017-03-10T23:54:21.778Z,4.30
2017-03-10T23:55:21.057Z,4.30
2017-03-10T23:56:20.745Z,4.30
2017-03-10T23:57:20.238Z,4.30
2017-03-10T23:58:19.702Z,4.30
2017-03-10T23:59:18.716Z,4.30
